sensor_id;sensor_type;location;lat;lon;timestamp;pressure;altitude;pressure_sealevel;temperature;humidity
8280;BME280;8335;42.646;23.380;2024-03-02T00:01:20;143547.53;;;7.91;100.00
8280;BME280;8335;42.646;23.380;2024-03-02T00:03:47;143553.75;;;7.93;100.00
8280;BME280;8335;42.646;23.380;2024-03-02T00:06:15;143557.47;;;7.95;100.00
8280;BME280;8335;42.646;23.380;2024-03-02T00:08:42;143551.22;;;7.92;100.00
8280;BME280;8335;42.646;23.380;2024-03-02T00:11:08;143553.75;;;7.93;100.00
8280;BME280;8335;42.646;23.380;2024-03-02T00:13:37;143537.63;;;7.87;100.00
8280;BME280;8335;42.646;23.380;2024-03-02T00:16:05;143528.91;;;7.83;100.00
8280;BME280;8335;42.646;23.380;2024-03-02T00:18:33;143530.16;;;7.84;100.00
8280;BME280;8335;42.646;23.380;2024-03-02T00:21:01;143537.63;;;7.87;100.00
8280;BME280;8335;42.646;23.380;2024-03-02T00:23:30;143505.38;;;7.73;100.00
8280;BME280;8335;42.646;23.380;2024-03-02T00:25:58;143526.44;;;7.82;100.00
8280;BME280;8335;42.646;23.380;2024-03-02T00:28:26;143527.69;;;7.83;100.00
8280;BME280;8335;42.646;23.380;2024-03-02T00:30:56;143535.09;;;7.86;100.00
8280;BME280;8335;42.646;23.380;2024-03-02T00:33:26;143537.63;;;7.87;100.00
8280;BME280;8335;42.646;23.380;2024-03-02T00:35:53;143542.56;;;7.89;100.00
8280;BME280;8335;42.646;23.380;2024-03-02T00:38:19;143525.22;;;7.82;100.00
8280;BME280;8335;42.646;23.380;2024-03-02T00:40:47;143521.50;;;7.80;100.00
8280;BME280;8335;42.646;23.380;2024-03-02T00:43:44;143516.50;;;7.78;100.00
8280;BME280;8335;42.646;23.380;2024-03-02T00:46:12;143505.38;;;7.73;100.00
8280;BME280;8335;42.646;23.380;2024-03-02T00:48:51;143502.91;;;7.72;100.00
8280;BME280;8335;42.646;23.380;2024-03-02T00:51:19;143497.91;;;7.70;100.00
8280;BME280;8335;42.646;23.380;2024-03-02T00:53:47;143510.31;;;7.76;100.00
8280;BME280;8335;42.646;23.380;2024-03-02T00:56:15;143523.97;;;7.81;100.00
8280;BME280;8335;42.646;23.380;2024-03-02T00:58:42;143541.34;;;7.88;100.00
8280;BME280;8335;42.646;23.380;2024-03-02T01:01:09;143540.09;;;7.88;100.00
8280;BME280;8335;42.646;23.380;2024-03-02T01:03:35;143568.59;;;7.99;100.00
8280;BME280;8335;42.646;23.380;2024-03-02T01:06:04;143573.59;;;8.02;100.00
8280;BME280;8335;42.646;23.380;2024-03-02T01:08:32;143584.72;;;8.06;100.00
8280;BME280;8335;42.646;23.380;2024-03-02T01:10:59;143600.84;;;8.13;100.00
8280;BME280;8335;42.646;23.380;2024-03-02T01:13:27;143608.31;;;8.16;100.00
8280;BME280;8335;42.646;23.380;2024-03-02T01:15:54;143619.47;;;8.20;100.00
8280;BME280;8335;42.646;23.380;2024-03-02T01:18:21;143620.72;;;8.21;100.00
8280;BME280;8335;42.646;23.380;2024-03-02T01:20:48;143624.47;;;8.22;100.00
8280;BME280;8335;42.646;23.380;2024-03-02T01:23:17;143623.22;;;8.22;100.00
8280;BME280;8335;42.646;23.380;2024-03-02T01:25:44;143629.41;;;8.24;100.00
8280;BME280;8335;42.646;23.380;2024-03-02T01:28:11;143612.03;;;8.17;100.00
8280;BME280;8335;42.646;23.380;2024-03-02T01:30:39;143595.91;;;8.11;100.00
8280;BME280;8335;42.646;23.380;2024-03-02T01:33:06;143602.09;;;8.13;100.00
8280;BME280;8335;42.646;23.380;2024-03-02T01:35:33;143582.25;;;8.05;100.00
8280;BME280;8335;42.646;23.380;2024-03-02T01:38:00;143568.59;;;7.99;100.00
8280;BME280;8335;42.646;23.380;2024-03-02T01:40:26;143578.53;;;8.04;100.00
8280;BME280;8335;42.646;23.380;2024-03-02T01:42:54;143578.53;;;8.04;100.00
8280;BME280;8335;42.646;23.380;2024-03-02T01:45:21;143592.19;;;8.09;100.00
8280;BME280;8335;42.646;23.380;2024-03-02T01:47:49;143608.31;;;8.16;100.00
8280;BME280;8335;42.646;23.380;2024-03-02T01:50:16;143628.16;;;8.24;100.00
8280;BME280;8335;42.646;23.380;2024-03-02T01:52:50;143625.69;;;8.23;100.00
8280;BME280;8335;42.646;23.380;2024-03-02T01:55:17;143648.03;;;8.32;100.00
8280;BME280;8335;42.646;23.380;2024-03-02T01:57:44;143638.06;;;8.28;100.00
8280;BME280;8335;42.646;23.380;2024-03-02T02:00:13;143628.16;;;8.24;100.00
8280;BME280;8335;42.646;23.380;2024-03-02T02:02:39;143613.28;;;8.18;100.00
8280;BME280;8335;42.646;23.380;2024-03-02T02:05:07;143602.09;;;8.13;100.00
8280;BME280;8335;42.646;23.380;2024-03-02T02:07:35;143599.63;;;8.12;100.00
8280;BME280;8335;42.646;23.380;2024-03-02T02:10:01;143583.50;;;8.06;100.00
8280;BME280;8335;42.646;23.380;2024-03-02T02:12:28;143590.97;;;8.09;100.00
8280;BME280;8335;42.646;23.380;2024-03-02T02:14:55;143571.13;;;8.00;100.00
8280;BME280;8335;42.646;23.380;2024-03-02T02:20:22;143536.38;;;7.86;100.00
8280;BME280;8335;42.646;23.380;2024-03-02T02:22:57;143535.09;;;7.86;100.00
8280;BME280;8335;42.646;23.380;2024-03-02T02:25:24;143510.31;;;7.76;100.00
8280;BME280;8335;42.646;23.380;2024-03-02T02:27:51;143500.44;;;7.71;100.00
8280;BME280;8335;42.646;23.380;2024-03-02T02:30:21;143509.09;;;7.75;100.00
8280;BME280;8335;42.646;23.380;2024-03-02T02:32:48;143492.94;;;7.68;100.00
8280;BME280;8335;42.646;23.380;2024-03-02T02:35:15;143490.47;;;7.67;100.00
8280;BME280;8335;42.646;23.380;2024-03-02T02:37:42;143495.44;;;7.69;100.00
8280;BME280;8335;42.646;23.380;2024-03-02T02:40:12;143490.47;;;7.67;100.00
8280;BME280;8335;42.646;23.380;2024-03-02T02:42:39;143502.91;;;7.72;100.00
8280;BME280;8335;42.646;23.380;2024-03-02T02:45:06;143495.44;;;7.69;100.00
8280;BME280;8335;42.646;23.380;2024-03-02T02:47:33;143461.94;;;7.56;100.00
8280;BME280;8335;42.646;23.380;2024-03-02T02:50:01;143497.91;;;7.70;100.00
8280;BME280;8335;42.646;23.380;2024-03-02T02:52:31;143492.94;;;7.68;100.00
8280;BME280;8335;42.646;23.380;2024-03-02T02:54:58;143527.69;;;7.83;100.00
8280;BME280;8335;42.646;23.380;2024-03-02T02:57:26;143527.69;;;7.83;100.00
8280;BME280;8335;42.646;23.380;2024-03-02T02:59:53;143521.50;;;7.80;100.00
8280;BME280;8335;42.646;23.380;2024-03-02T03:02:19;143507.84;;;7.75;100.00
8280;BME280;8335;42.646;23.380;2024-03-02T03:04:46;143495.44;;;7.69;100.00
8280;BME280;8335;42.646;23.380;2024-03-02T03:07:13;143515.28;;;7.78;100.00
8280;BME280;8335;42.646;23.380;2024-03-02T03:09:40;143512.78;;;7.77;100.00
8280;BME280;8335;42.646;23.380;2024-03-02T03:12:07;143514.03;;;7.77;100.00
8280;BME280;8335;42.646;23.380;2024-03-02T03:14:35;143511.56;;;7.76;100.00
8280;BME280;8335;42.646;23.380;2024-03-02T03:17:02;143519.03;;;7.79;100.00
8280;BME280;8335;42.646;23.380;2024-03-02T03:19:29;143531.38;;;7.84;100.00
8280;BME280;8335;42.646;23.380;2024-03-02T03:21:56;143541.34;;;7.88;100.00
8280;BME280;8335;42.646;23.380;2024-03-02T03:24:22;143547.53;;;7.91;100.00
8280;BME280;8335;42.646;23.380;2024-03-02T03:26:49;143550.00;;;7.92;100.00
8280;BME280;8335;42.646;23.380;2024-03-02T03:29:16;143567.38;;;7.99;100.00
8280;BME280;8335;42.646;23.380;2024-03-02T03:31:44;143577.31;;;8.03;100.00
8280;BME280;8335;42.646;23.380;2024-03-02T03:34:10;143571.13;;;8.00;100.00
8280;BME280;8335;42.646;23.380;2024-03-02T03:36:41;143577.31;;;8.03;100.00
8280;BME280;8335;42.646;23.380;2024-03-02T03:39:07;143594.66;;;8.10;100.00
8280;BME280;8335;42.646;23.380;2024-03-02T03:41:34;143614.50;;;8.18;100.00
8280;BME280;8335;42.646;23.380;2024-03-02T03:44:01;143621.94;;;8.21;100.00
8280;BME280;8335;42.646;23.380;2024-03-02T03:46:28;143610.81;;;8.17;100.00
8280;BME280;8335;42.646;23.380;2024-03-02T03:48:56;143584.72;;;8.06;100.00
8280;BME280;8335;42.646;23.380;2024-03-02T03:51:23;143579.78;;;8.04;100.00
8280;BME280;8335;42.646;23.380;2024-03-02T03:53:50;143589.72;;;8.08;100.00
8280;BME280;8335;42.646;23.380;2024-03-02T03:56:16;143609.56;;;8.16;100.00
8280;BME280;8335;42.646;23.380;2024-03-02T03:58:43;143625.69;;;8.23;100.00
8280;BME280;8335;42.646;23.380;2024-03-02T04:01:10;143630.66;;;8.25;100.00
8280;BME280;8335;42.646;23.380;2024-03-02T04:03:37;143630.66;;;8.25;100.00
8280;BME280;8335;42.646;23.380;2024-03-02T04:06:06;143625.69;;;8.23;100.00
8280;BME280;8335;42.646;23.380;2024-03-02T04:08:32;143609.56;;;8.16;100.00
8280;BME280;8335;42.646;23.380;2024-03-02T04:10:59;143615.75;;;8.19;100.00
8280;BME280;8335;42.646;23.380;2024-03-02T04:13:25;143625.69;;;8.23;100.00
8280;BME280;8335;42.646;23.380;2024-03-02T04:15:52;143644.31;;;8.31;100.00
8280;BME280;8335;42.646;23.380;2024-03-02T04:18:19;143661.72;;;8.38;100.00
8280;BME280;8335;42.646;23.380;2024-03-02T04:20:45;143671.63;;;8.42;100.00
8280;BME280;8335;42.646;23.380;2024-03-02T04:23:13;143676.63;;;8.44;100.00
8280;BME280;8335;42.646;23.380;2024-03-02T04:25:40;143676.63;;;8.44;100.00
8280;BME280;8335;42.646;23.380;2024-03-02T04:28:07;143674.09;;;8.43;100.00
8280;BME280;8335;42.646;23.380;2024-03-02T04:30:33;143655.50;;;8.35;100.00
8280;BME280;8335;42.646;23.380;2024-03-02T04:33:00;143650.50;;;8.33;100.00
8280;BME280;8335;42.646;23.380;2024-03-02T04:35:27;143652.97;;;8.34;100.00
8280;BME280;8335;42.646;23.380;2024-03-02T04:37:54;143656.72;;;8.36;100.00
8280;BME280;8335;42.646;23.380;2024-03-02T04:40:22;143661.72;;;8.38;100.00
8280;BME280;8335;42.646;23.380;2024-03-02T04:42:48;143654.22;;;8.35;100.00
8280;BME280;8335;42.646;23.380;2024-03-02T04:45:15;143651.72;;;8.34;100.00
8280;BME280;8335;42.646;23.380;2024-03-02T04:47:42;143625.69;;;8.23;100.00
8280;BME280;8335;42.646;23.380;2024-03-02T04:50:11;143620.72;;;8.21;100.00
8280;BME280;8335;42.646;23.380;2024-03-02T04:52:38;143597.16;;;8.11;100.00
8280;BME280;8335;42.646;23.380;2024-03-02T04:55:05;143604.56;;;8.14;100.00
8280;BME280;8335;42.646;23.380;2024-03-02T04:57:56;143587.22;;;8.07;100.00
8280;BME280;8335;42.646;23.380;2024-03-02T05:00:23;143573.59;;;8.02;100.00
8280;BME280;8335;42.646;23.380;2024-03-02T05:02:49;143566.13;;;7.98;100.00
8280;BME280;8335;42.646;23.380;2024-03-02T05:05:16;143562.41;;;7.97;100.00
8280;BME280;8335;42.646;23.380;2024-03-02T05:07:43;143551.22;;;7.92;100.00
8280;BME280;8335;42.646;23.380;2024-03-02T05:10:09;143538.88;;;7.87;100.00
8280;BME280;8335;42.646;23.380;2024-03-02T05:12:37;143543.81;;;7.89;100.00
8280;BME280;8335;42.646;23.380;2024-03-02T05:15:23;143551.22;;;7.92;100.00
8280;BME280;8335;42.646;23.380;2024-03-02T05:17:49;143553.75;;;7.93;100.00
8280;BME280;8335;42.646;23.380;2024-03-02T05:20:16;143567.38;;;7.99;100.00
8280;BME280;8335;42.646;23.380;2024-03-02T05:22:43;143573.59;;;8.02;100.00
8280;BME280;8335;42.646;23.380;2024-03-02T05:25:10;143579.78;;;8.04;100.00
8280;BME280;8335;42.646;23.380;2024-03-02T05:27:37;143583.50;;;8.06;100.00
8280;BME280;8335;42.646;23.380;2024-03-02T05:30:04;143582.25;;;8.05;100.00
8280;BME280;8335;42.646;23.380;2024-03-02T05:32:34;143577.31;;;8.03;100.00
8280;BME280;8335;42.646;23.380;2024-03-02T05:35:00;143578.53;;;8.04;100.00
8280;BME280;8335;42.646;23.380;2024-03-02T05:37:28;143578.53;;;8.04;100.00
8280;BME280;8335;42.646;23.380;2024-03-02T05:39:54;143587.22;;;8.07;100.00
8280;BME280;8335;42.646;23.380;2024-03-02T05:42:21;143557.47;;;7.95;100.00
8280;BME280;8335;42.646;23.380;2024-03-02T05:44:48;143550.00;;;7.92;100.00
8280;BME280;8335;42.646;23.380;2024-03-02T05:47:15;143542.56;;;7.89;100.00
8280;BME280;8335;42.646;23.380;2024-03-02T05:49:43;143548.75;;;7.91;100.00
8280;BME280;8335;42.646;23.380;2024-03-02T05:52:10;143559.94;;;7.96;100.00
8280;BME280;8335;42.646;23.380;2024-03-02T05:54:37;143566.13;;;7.98;100.00
8280;BME280;8335;42.646;23.380;2024-03-02T05:57:04;143559.94;;;7.96;100.00
8280;BME280;8335;42.646;23.380;2024-03-02T05:59:51;143548.75;;;7.91;100.00
8280;BME280;8335;42.646;23.380;2024-03-02T06:02:19;143559.94;;;7.96;100.00
8280;BME280;8335;42.646;23.380;2024-03-02T06:04:47;143571.13;;;8.00;100.00
8280;BME280;8335;42.646;23.380;2024-03-02T06:07:13;143556.22;;;7.94;100.00
8280;BME280;8335;42.646;23.380;2024-03-02T06:09:41;143555.00;;;7.94;100.00
8280;BME280;8335;42.646;23.380;2024-03-02T06:12:07;143526.44;;;7.82;100.00
8280;BME280;8335;42.646;23.380;2024-03-02T06:14:34;143496.66;;;7.70;100.00
8280;BME280;8335;42.646;23.380;2024-03-02T06:17:01;143497.91;;;7.70;100.00
8280;BME280;8335;42.646;23.380;2024-03-02T06:19:27;143500.44;;;7.71;100.00
8280;BME280;8335;42.646;23.380;2024-03-02T06:21:56;143517.78;;;7.79;100.00
8280;BME280;8335;42.646;23.380;2024-03-02T06:24:22;143522.72;;;7.81;100.00
8280;BME280;8335;42.646;23.380;2024-03-02T06:26:49;143536.38;;;7.86;100.00
8280;BME280;8335;42.646;23.380;2024-03-02T06:29:15;143525.22;;;7.82;100.00
8280;BME280;8335;42.646;23.380;2024-03-02T06:31:41;143500.44;;;7.71;100.00
8280;BME280;8335;42.646;23.380;2024-03-02T06:34:08;143492.94;;;7.68;100.00
8280;BME280;8335;42.646;23.380;2024-03-02T06:36:34;143495.44;;;7.69;100.00
8280;BME280;8335;42.646;23.380;2024-03-02T06:39:02;143499.13;;;7.71;100.00
8280;BME280;8335;42.646;23.380;2024-03-02T06:41:29;143496.66;;;7.70;100.00
8280;BME280;8335;42.646;23.380;2024-03-02T06:43:56;143474.34;;;7.61;100.00
8280;BME280;8335;42.646;23.380;2024-03-02T06:46:24;143522.72;;;7.81;100.00
8280;BME280;8335;42.646;23.380;2024-03-02T06:48:51;143536.38;;;7.86;100.00
8280;BME280;8335;42.646;23.380;2024-03-02T06:51:18;143564.88;;;7.98;100.00
8280;BME280;8335;42.646;23.380;2024-03-02T06:53:44;143589.72;;;8.08;100.00
8280;BME280;8335;42.646;23.380;2024-03-02T06:56:13;143612.03;;;8.17;100.00
8280;BME280;8335;42.646;23.380;2024-03-02T06:58:40;143599.63;;;8.12;100.00
8280;BME280;8335;42.646;23.380;2024-03-02T07:01:08;143599.63;;;8.12;100.00
8280;BME280;8335;42.646;23.380;2024-03-02T07:03:35;143488.00;;;7.66;100.00
8280;BME280;8335;42.646;23.380;2024-03-02T07:06:02;143571.13;;;8.00;100.00
8280;BME280;8335;42.646;23.380;2024-03-02T07:08:28;143576.06;;;8.03;100.00
8280;BME280;8335;42.646;23.380;2024-03-02T07:10:55;143583.50;;;8.06;100.00
8280;BME280;8335;42.646;23.380;2024-03-02T07:13:23;143600.84;;;8.13;100.00
8280;BME280;8335;42.646;23.380;2024-03-02T07:15:50;143610.81;;;8.17;100.00
8280;BME280;8335;42.646;23.380;2024-03-02T07:18:41;143628.16;;;8.24;100.00
8280;BME280;8335;42.646;23.380;2024-03-02T07:21:10;143640.59;;;8.29;100.00
8280;BME280;8335;42.646;23.380;2024-03-02T07:23:37;143652.97;;;8.34;100.00
8280;BME280;8335;42.646;23.380;2024-03-02T07:26:03;143669.16;;;8.41;100.00
8280;BME280;8335;42.646;23.380;2024-03-02T07:28:33;143679.09;;;8.45;100.00
8280;BME280;8335;42.646;23.380;2024-03-02T07:31:00;143684.06;;;8.47;100.00
8280;BME280;8335;42.646;23.380;2024-03-02T07:33:27;143656.72;;;8.36;100.00
8280;BME280;8335;42.646;23.380;2024-03-02T07:35:53;143614.50;;;8.18;100.00
8280;BME280;8335;42.646;23.380;2024-03-02T07:38:20;143636.84;;;8.27;100.00
8280;BME280;8335;42.646;23.380;2024-03-02T07:40:47;143631.88;;;8.25;100.00
8280;BME280;8335;42.646;23.380;2024-03-02T07:43:15;143638.06;;;8.28;100.00
8280;BME280;8335;42.646;23.380;2024-03-02T07:45:44;143612.03;;;8.17;100.00
8280;BME280;8335;42.646;23.380;2024-03-02T07:48:11;143610.81;;;8.17;100.00
8280;BME280;8335;42.646;23.380;2024-03-02T07:50:37;143625.69;;;8.23;100.00
8280;BME280;8335;42.646;23.380;2024-03-02T07:53:04;143629.41;;;8.24;100.00
8280;BME280;8335;42.646;23.380;2024-03-02T07:55:31;143630.66;;;8.25;100.00
8280;BME280;8335;42.646;23.380;2024-03-02T07:57:58;143628.16;;;8.24;100.00
8280;BME280;8335;42.646;23.380;2024-03-02T08:00:25;143610.81;;;8.17;100.00
8280;BME280;8335;42.646;23.380;2024-03-02T08:02:54;143594.66;;;8.10;100.00
8280;BME280;8335;42.646;23.380;2024-03-02T08:05:21;143598.38;;;8.12;100.00
8280;BME280;8335;42.646;23.380;2024-03-02T08:07:48;143597.16;;;8.11;100.00
8280;BME280;8335;42.646;23.380;2024-03-02T08:10:18;143599.63;;;8.12;100.00
8280;BME280;8335;42.646;23.380;2024-03-02T08:12:45;143608.31;;;8.16;100.00
8280;BME280;8335;42.646;23.380;2024-03-02T08:15:12;143617.00;;;8.19;100.00
8280;BME280;8335;42.646;23.380;2024-03-02T08:17:39;143603.34;;;8.14;100.00
8280;BME280;8335;42.646;23.380;2024-03-02T08:20:11;143633.13;;;8.26;100.00
8280;BME280;8335;42.646;23.380;2024-03-02T08:22:38;143665.44;;;8.39;100.00
8280;BME280;8335;42.646;23.380;2024-03-02T08:25:05;143685.28;;;8.47;100.00
8280;BME280;8335;42.646;23.380;2024-03-02T08:27:33;143703.91;;;8.55;100.00
8280;BME280;8335;42.646;23.380;2024-03-02T08:29:59;143695.25;;;8.51;100.00
8280;BME280;8335;42.646;23.380;2024-03-02T08:32:26;143716.31;;;8.60;100.00
8280;BME280;8335;42.646;23.380;2024-03-02T08:34:53;143741.13;;;8.70;100.00
8280;BME280;8335;42.646;23.380;2024-03-02T08:37:21;143739.88;;;8.70;100.00
8280;BME280;8335;42.646;23.380;2024-03-02T08:39:48;143768.47;;;8.81;100.00
8280;BME280;8335;42.646;23.380;2024-03-02T08:42:15;143764.75;;;8.80;100.00
8280;BME280;8335;42.646;23.380;2024-03-02T08:44:42;143784.59;;;8.88;100.00
8280;BME280;8335;42.646;23.380;2024-03-02T08:47:09;143795.75;;;8.93;100.00
8280;BME280;8335;42.646;23.380;2024-03-02T08:49:36;143833.03;;;9.08;100.00
8280;BME280;8335;42.646;23.380;2024-03-02T08:52:03;143810.63;;;8.99;100.00
8280;BME280;8335;42.646;23.380;2024-03-02T08:54:31;143784.59;;;8.88;100.00
8280;BME280;8335;42.646;23.380;2024-03-02T08:56:59;143813.13;;;9.00;100.00
8280;BME280;8335;42.646;23.380;2024-03-02T08:59:26;143866.56;;;9.22;100.00
8280;BME280;8335;42.646;23.380;2024-03-02T09:01:53;143891.38;;;9.32;100.00
8280;BME280;8335;42.646;23.380;2024-03-02T09:04:19;143937.34;;;9.51;100.00
8280;BME280;8335;42.646;23.380;2024-03-02T09:06:46;143977.06;;;9.67;100.00
8280;BME280;8335;42.646;23.380;2024-03-02T09:09:13;143974.59;;;9.66;100.00
8280;BME280;8335;42.646;23.380;2024-03-02T09:11:41;144023.06;;;9.86;100.00
8280;BME280;8335;42.646;23.380;2024-03-02T09:14:08;144071.47;;;10.06;100.00
8280;BME280;8335;42.646;23.380;2024-03-02T09:16:35;144098.84;;;10.17;100.00
8280;BME280;8335;42.646;23.380;2024-03-02T09:19:01;144110.03;;;10.22;100.00
8280;BME280;8335;42.646;23.380;2024-03-02T09:21:28;144162.28;;;10.43;100.00
8280;BME280;8335;42.646;23.380;2024-03-02T09:23:55;144207.00;;;10.61;100.00
8280;BME280;8335;42.646;23.380;2024-03-02T09:26:22;144229.38;;;10.70;100.00
8280;BME280;8335;42.646;23.380;2024-03-02T09:28:51;144229.38;;;10.70;100.00
8280;BME280;8335;42.646;23.380;2024-03-02T09:31:18;144220.69;;;10.67;100.00
8280;BME280;8335;42.646;23.380;2024-03-02T09:33:44;144244.28;;;10.77;100.00
8280;BME280;8335;42.646;23.380;2024-03-02T09:36:18;144230.59;;;10.71;100.00
8280;BME280;8335;42.646;23.380;2024-03-02T09:38:45;144207.00;;;10.61;100.00
8280;BME280;8335;42.646;23.380;2024-03-02T09:41:12;144157.28;;;10.41;100.00
8280;BME280;8335;42.646;23.380;2024-03-02T09:43:38;144151.06;;;10.38;100.00
8280;BME280;8335;42.646;23.380;2024-03-02T09:46:08;144162.28;;;10.43;100.00
8280;BME280;8335;42.646;23.380;2024-03-02T09:48:35;144142.34;;;10.35;100.00
8280;BME280;8335;42.646;23.380;2024-03-02T09:51:04;144138.63;;;10.33;100.00
8280;BME280;8335;42.646;23.380;2024-03-02T09:53:32;144075.25;;;10.07;100.00
8280;BME280;8335;42.646;23.380;2024-03-02T09:55:59;144075.25;;;10.07;100.00
8280;BME280;8335;42.646;23.380;2024-03-02T09:58:26;144076.47;;;10.08;100.00
8280;BME280;8335;42.646;23.380;2024-03-02T10:00:53;144042.94;;;9.94;100.00
8280;BME280;8335;42.646;23.380;2024-03-02T10:03:22;144059.09;;;10.01;100.00
8280;BME280;8335;42.646;23.380;2024-03-02T10:05:49;144051.59;;;9.98;100.00
8280;BME280;8335;42.646;23.380;2024-03-02T10:08:17;144081.44;;;10.10;100.00
8280;BME280;8335;42.646;23.380;2024-03-02T10:10:43;144081.44;;;10.10;100.00
8280;BME280;8335;42.646;23.380;2024-03-02T10:13:11;144102.53;;;10.18;100.00
8280;BME280;8335;42.646;23.380;2024-03-02T10:15:39;144123.72;;;10.27;100.00
8280;BME280;8335;42.646;23.380;2024-03-02T10:18:08;144121.22;;;10.26;100.00
8280;BME280;8335;42.646;23.380;2024-03-02T10:20:37;144113.78;;;10.23;100.00
8280;BME280;8335;42.646;23.380;2024-03-02T10:23:12;144138.63;;;10.33;100.00
8280;BME280;8335;42.646;23.380;2024-03-02T10:25:39;144133.66;;;10.31;100.00
8280;BME280;8335;42.646;23.380;2024-03-02T10:28:06;144133.66;;;10.31;100.00
8280;BME280;8335;42.646;23.380;2024-03-02T10:30:33;144086.38;;;10.12;100.00
8280;BME280;8335;42.646;23.380;2024-03-02T10:33:01;144134.91;;;10.32;100.00
8280;BME280;8335;42.646;23.380;2024-03-02T10:35:28;144131.19;;;10.30;100.00
8280;BME280;8335;42.646;23.380;2024-03-02T10:37:58;144106.25;;;10.20;100.00
8280;BME280;8335;42.646;23.380;2024-03-02T10:40:26;144076.47;;;10.08;100.00
8280;BME280;8335;42.646;23.380;2024-03-02T10:42:53;144073.94;;;10.07;100.00
8280;BME280;8335;42.646;23.380;2024-03-02T10:45:20;144061.56;;;10.02;100.00
8280;BME280;8335;42.646;23.380;2024-03-02T10:47:47;144061.56;;;10.02;100.00
8280;BME280;8335;42.646;23.380;2024-03-02T10:50:14;144056.56;;;10.00;100.00
8280;BME280;8335;42.646;23.380;2024-03-02T10:52:41;144065.28;;;10.03;100.00
8280;BME280;8335;42.646;23.380;2024-03-02T10:55:09;144067.75;;;10.04;100.00
8280;BME280;8335;42.646;23.380;2024-03-02T10:57:41;144036.69;;;9.91;100.00
8280;BME280;8335;42.646;23.380;2024-03-02T11:00:12;144075.25;;;10.07;100.00
8280;BME280;8335;42.646;23.380;2024-03-02T11:02:43;144071.47;;;10.06;100.00
8280;BME280;8335;42.646;23.380;2024-03-02T11:05:13;144056.56;;;10.00;100.00
8280;BME280;8335;42.646;23.380;2024-03-02T11:07:44;144071.47;;;10.06;100.00
8280;BME280;8335;42.646;23.380;2024-03-02T11:10:13;144076.47;;;10.08;100.00
8280;BME280;8335;42.646;23.380;2024-03-02T11:12:48;144083.91;;;10.11;100.00
8280;BME280;8335;42.646;23.380;2024-03-02T11:15:20;144066.50;;;10.04;100.00
8280;BME280;8335;42.646;23.380;2024-03-02T11:17:51;144023.06;;;9.86;100.00
8280;BME280;8335;42.646;23.380;2024-03-02T11:20:19;144000.66;;;9.77;100.00
8280;BME280;8335;42.646;23.380;2024-03-02T11:22:46;143985.75;;;9.71;100.00
8280;BME280;8335;42.646;23.380;2024-03-02T11:25:24;143984.50;;;9.70;100.00
8280;BME280;8335;42.646;23.380;2024-03-02T11:28:04;144013.09;;;9.82;100.00
8280;BME280;8335;42.646;23.380;2024-03-02T11:30:53;144032.97;;;9.90;100.00
8280;BME280;8335;42.646;23.380;2024-03-02T11:33:26;144037.91;;;9.92;100.00
8280;BME280;8335;42.646;23.380;2024-03-02T11:35:55;144026.78;;;9.87;100.00
8280;BME280;8335;42.646;23.380;2024-03-02T11:38:22;144026.78;;;9.87;100.00
8280;BME280;8335;42.646;23.380;2024-03-02T11:40:51;144039.16;;;9.92;100.00
8280;BME280;8335;42.646;23.380;2024-03-02T11:43:19;144030.47;;;9.89;100.00
8280;BME280;8335;42.646;23.380;2024-03-02T11:45:45;144014.31;;;9.82;100.00
8280;BME280;8335;42.646;23.380;2024-03-02T11:48:14;143999.41;;;9.76;100.00
8280;BME280;8335;42.646;23.380;2024-03-02T11:50:42;143999.41;;;9.76;100.00
8280;BME280;8335;42.646;23.380;2024-03-02T11:53:12;143986.97;;;9.71;100.00
8280;BME280;8335;42.646;23.380;2024-03-02T11:55:39;143946.00;;;9.54;100.00
8280;BME280;8335;42.646;23.380;2024-03-02T11:58:08;143964.63;;;9.62;100.00
8280;BME280;8335;42.646;23.380;2024-03-02T12:00:35;143953.50;;;9.57;100.00
8280;BME280;8335;42.646;23.380;2024-03-02T12:03:04;143942.28;;;9.53;100.00
8280;BME280;8335;42.646;23.380;2024-03-02T12:05:32;143936.09;;;9.50;100.00
8280;BME280;8335;42.646;23.380;2024-03-02T12:08:01;143931.09;;;9.48;100.00
8280;BME280;8335;42.646;23.380;2024-03-02T12:10:29;143931.09;;;9.48;100.00
8280;BME280;8335;42.646;23.380;2024-03-02T12:12:56;143947.25;;;9.55;100.00
8280;BME280;8335;42.646;23.380;2024-03-02T12:15:25;143937.34;;;9.51;100.00
8280;BME280;8335;42.646;23.380;2024-03-02T12:17:54;143982.03;;;9.69;100.00
8280;BME280;8335;42.646;23.380;2024-03-02T12:20:21;144009.38;;;9.80;100.00
8280;BME280;8335;42.646;23.380;2024-03-02T12:22:49;144041.69;;;9.93;100.00
8280;BME280;8335;42.646;23.380;2024-03-02T12:25:16;144062.78;;;10.02;100.00
8280;BME280;8335;42.646;23.380;2024-03-02T12:27:43;144081.44;;;10.10;100.00
8280;BME280;8335;42.646;23.380;2024-03-02T12:30:11;144082.66;;;10.10;100.00
8280;BME280;8335;42.646;23.380;2024-03-02T12:32:40;144087.63;;;10.12;100.00
8280;BME280;8335;42.646;23.380;2024-03-02T12:35:08;144105.03;;;10.19;100.00
8280;BME280;8335;42.646;23.380;2024-03-02T12:37:42;144118.75;;;10.25;100.00
8280;BME280;8335;42.646;23.380;2024-03-02T12:40:10;144137.41;;;10.33;100.00
8280;BME280;8335;42.646;23.380;2024-03-02T12:42:36;144148.59;;;10.37;100.00
8280;BME280;8335;42.646;23.380;2024-03-02T12:45:04;144164.75;;;10.44;100.00
8280;BME280;8335;42.646;23.380;2024-03-02T12:47:31;144179.63;;;10.50;100.00
8280;BME280;8335;42.646;23.380;2024-03-02T12:49:59;144190.84;;;10.55;100.00
8280;BME280;8335;42.646;23.380;2024-03-02T12:52:26;144207.00;;;10.61;100.00
8280;BME280;8335;42.646;23.380;2024-03-02T12:54:53;144216.97;;;10.65;100.00
8280;BME280;8335;42.646;23.380;2024-03-02T12:57:25;144235.63;;;10.73;100.00
8280;BME280;8335;42.646;23.380;2024-03-02T12:59:52;144245.53;;;10.77;100.00
8280;BME280;8335;42.646;23.380;2024-03-02T13:02:19;144264.19;;;10.85;100.00
8280;BME280;8335;42.646;23.380;2024-03-02T13:04:52;144280.34;;;10.91;100.00